Terminal Aerodrome Forecast
Issued by NWS Cleveland, OH

Home | Current Version | Previous Version | Graphics & Text | Print | Product List | Glossary Off
Versions: 1 2 3 4 5 6 7 8 9 10 11 12 13 14 15 16

000
FTUS41 KCLE 241800 AAA
TAFERI
TAF AMD
KERI 241833Z 2419/2518 28010KT P6SM BKN250
     FM250000 17006KT P6SM BKN120
     FM250900 20012KT P6SM BKN120
     FM251400 22015G25KT P6SM SCT050 BKN120=

USA.gov is the U.S. government's official web portal to all federal, state and local government web resources and services.